Dog Valley, California Weather observations

Data are for 10 minute period ending at time listed.
 Day   Time    Ave.   Ave.  Ave.  Vector   Max.   Total    Solar   
  of    of     Air    Rel.  Wind   Wind    Wind  Precip.   Rad.    
Year   Day     Temp.  Hum.  Speed  Dir.    Gust                    
2014   (PST)    F      %     mph   deg.    mph     in.     W/m2    
------------------------------------------------------------------- 
 243   13:00   83.0    15    2.0   283     11.0    3.08     909  
 243   14:00   85.0    13    2.0   165     11.0    3.08     862  
 243   15:00   84.0    14    3.0   151     11.0    3.08     739  
 243   16:00   80.0    16    2.0   232     11.0    3.08     162  
 243   17:00   77.0    19    3.0   307     14.0    3.08     221  
 243   18:00   72.0    23    2.0   309     10.0    3.08      80  
 243   19:00   67.0    29    1.0   249      7.0    3.08       5  
 243   20:00   63.0    33    1.0   177      4.0    3.08       0  
 243   21:00   60.0    37    1.0   282      7.0    3.08       0  
 243   22:00   61.0    36    1.0   279      6.0    3.08       0  
 243   23:00   55.0    45    0.0   174      8.0    3.08       0  
 244    0:00   49.0    56    0.0   275      2.0    3.08       0  
 244    1:00   46.0    62    0.0   275      2.0    3.08       0  
 244    2:00   44.0    70    0.0   275      1.0    3.08       0  
 244    3:00   43.0    72    0.0   275      1.0    3.08       0  
 244    4:00   41.0    74    0.0   275      0.0    3.08       0  
 244    5:00   40.0    74    0.0   275      1.0    3.08       0  
 244    6:00   39.0    74    0.0   275      1.0    3.08       2  
 244    7:00   43.0    73    0.0   275      0.0    3.08      31  
 244    8:00   59.0    46    0.0   120      2.0    3.08     137  
 244    9:00   71.0    28    0.0   113      4.0    3.08     527  
 244   10:00   73.0    24    2.0   128      6.0    3.08     697  
 244   11:00   78.0    22    2.0   119      7.0    3.08     824  
 244   12:00   80.0    20    3.0   117      8.0    3.08     898  

Return to Dog Valley, California graphs page.


Western Regional Climate Center,wrcc@dri.edu